Terminal Aerodrome Forecast
Issued by NWS Sterling, VA

Current Version | Previous Version | Graphics & Text | Print | Product List | Glossary On
Versions: 1 2 3 4 5 6 7 8 9 10 11 12 13 14 15 16 17 18 19 20 21 22 23 24 25
772
FTUS41 KLWX 210851 AAA
TAFDCA
TAF AMD
KDCA 210851Z 2109/2206 VRB03KT P6SM BKN070
     FM211800 18008KT P6SM VCTS BKN090CB
     FM212100 19009KT P6SM BKN090
     FM220300 18005KT P6SM BKN050=

USA.gov is the U.S. government's official web portal to all federal, state and local government web resources and services.